Time;durP1;ratioP1;P1;durP2;ratioP2;P2;SDS_P1;SDS_P2;PMS_P1;PMS_P2;Temp;Humidity;BMP_temperature;BMP_pressure;BME280_temperature;BME280_humidity;BME280_pressure;Samples;Min_cycle;Max_cycle;Signal;HPM_P1;HPM_P2
2023/10/20 00:01:29;;;;;;;25.90;20.70;;;16.60;99.90;;;;;;5043306;28;20484;-72
2023/10/20 00:03:55;;;;;;;37.22;23.65;;;16.50;99.90;;;;;;5039642;28;20395;-71
2023/10/20 00:06:21;;;;;;;42.45;23.83;;;16.60;99.90;;;;;;5040509;28;20021;-72
2023/10/20 00:08:47;;;;;;;38.25;24.40;;;16.50;99.90;;;;;;5035427;28;20044;-71
2023/10/20 00:11:13;;;;;;;31.23;21.10;;;16.50;99.90;;;;;;5041787;28;20021;-71
2023/10/20 00:13:39;;;;;;;105.45;29.10;;;16.50;99.90;;;;;;5037096;28;20496;-72
2023/10/20 00:16:05;;;;;;;50.50;25.50;;;16.40;99.90;;;;;;5039731;28;20036;-71
2023/10/20 00:18:30;;;;;;;46.22;25.08;;;16.40;99.90;;;;;;5039719;28;20045;-71
2023/10/20 00:20:56;;;;;;;50.00;26.38;;;16.40;99.90;;;;;;5040936;28;20378;-71
2023/10/20 00:23:22;;;;;;;47.53;27.85;;;16.40;99.90;;;;;;5040496;28;20031;-70
2023/10/20 00:25:48;;;;;;;46.15;28.02;;;16.40;99.90;;;;;;5040651;28;20052;-71
2023/10/20 00:28:13;;;;;;;42.95;25.73;;;16.40;99.90;;;;;;5043161;28;20065;-72
2023/10/20 00:30:40;;;;;;;42.03;27.17;;;16.40;99.90;;;;;;5038445;28;20028;-71
2023/10/20 00:33:06;;;;;;;40.05;27.33;;;16.40;99.90;;;;;;5037252;28;20029;-71
2023/10/20 00:35:32;;;;;;;45.00;27.67;;;16.40;99.90;;;;;;5036572;28;20489;-71
2023/10/20 00:37:58;;;;;;;38.70;26.00;;;16.40;99.90;;;;;;5041980;28;20025;-71
2023/10/20 00:40:24;;;;;;;39.80;25.25;;;16.50;99.90;;;;;;5039355;28;20132;-71
2023/10/20 00:42:50;;;;;;;38.33;26.27;;;16.50;99.90;;;;;;5022727;28;20633;-71
2023/10/20 00:45:16;;;;;;;43.28;26.10;;;16.50;99.90;;;;;;5040649;28;20036;-71
2023/10/20 00:47:46;;;;;;;44.22;26.48;;;16.50;99.90;;;;;;5040841;28;20022;-71
2023/10/20 00:50:29;;;;;;;42.30;27.60;;;16.40;99.90;;;;;;5033195;28;20168;-71
2023/10/20 00:52:55;;;;;;;50.53;26.98;;;16.40;99.90;;;;;;5024463;28;20108;-70
2023/10/20 00:55:22;;;;;;;46.47;26.35;;;16.40;99.90;;;;;;5039706;28;20171;-70
2023/10/20 00:57:48;;;;;;;38.10;25.25;;;16.40;99.90;;;;;;5036827;28;20029;-70
2023/10/20 01:00:14;;;;;;;47.38;27.00;;;16.40;99.90;;;;;;5038016;28;20052;-70
2023/10/20 01:02:41;;;;;;;40.70;26.90;;;16.40;99.90;;;;;;5038058;28;20029;-71
2023/10/20 01:05:08;;;;;;;55.15;27.55;;;16.30;99.90;;;;;;5035024;28;20018;-70
2023/10/20 01:07:35;;;;;;;50.28;28.77;;;16.30;99.90;;;;;;5038014;28;20505;-72
2023/10/20 01:10:05;;;;;;;44.90;26.95;;;16.40;99.90;;;;;;5036102;28;20029;-70
2023/10/20 01:12:32;;;;;;;46.65;28.45;;;16.30;99.90;;;;;;5022962;28;20033;-70
2023/10/20 01:14:59;;;;;;;41.03;27.08;;;16.30;99.90;;;;;;5040474;28;20168;-71
2023/10/20 01:17:29;;;;;;;44.00;27.58;;;16.30;99.90;;;;;;5039763;28;20033;-70
2023/10/20 01:19:55;;;;;;;47.20;27.75;;;16.20;99.90;;;;;;5038812;28;20041;-71
2023/10/20 01:22:22;;;;;;;45.65;29.48;;;16.20;99.90;;;;;;5020902;28;20033;-71
2023/10/20 01:24:48;;;;;;;42.03;27.50;;;16.20;99.90;;;;;;5035892;28;20433;-71
2023/10/20 01:27:14;;;;;;;46.92;28.95;;;16.20;99.90;;;;;;5037832;28;20083;-71
2023/10/20 01:29:40;;;;;;;61.95;29.65;;;16.20;99.90;;;;;;5008059;28;20036;-71
2023/10/20 01:32:09;;;;;;;51.85;32.08;;;16.20;99.90;;;;;;5022277;28;20099;-71
2023/10/20 01:34:47;;;;;;;54.53;30.98;;;16.20;99.90;;;;;;5041157;28;20523;-71
2023/10/20 01:37:15;;;;;;;63.17;32.45;;;16.20;99.90;;;;;;5037479;28;20708;-71
2023/10/20 01:39:42;;;;;;;49.60;28.90;;;16.20;99.90;;;;;;5037635;28;20047;-71
2023/10/20 01:42:08;;;;;;;51.00;29.75;;;16.20;99.90;;;;;;5010550;28;20070;-71
2023/10/20 01:44:34;;;;;;;45.75;31.10;;;16.20;99.90;;;;;;5021085;28;20460;-71
2023/10/20 01:47:00;;;;;;;53.53;31.75;;;16.20;99.90;;;;;;5037633;28;20024;-71
2023/10/20 01:49:26;;;;;;;66.78;31.13;;;16.20;99.90;;;;;;5022240;28;20029;-71
2023/10/20 01:51:52;;;;;;;60.17;32.28;;;16.20;99.90;;;;;;5038373;28;20017;-71
2023/10/20 01:54:18;;;;;;;61.40;33.42;;;16.20;99.90;;;;;;5041020;28;20599;-71
2023/10/20 01:56:43;;;;;;;57.45;33.45;;;16.20;99.90;;;;;;5022795;28;20502;-71
2023/10/20 01:59:10;;;;;;;60.67;32.38;;;16.20;99.90;;;;;;5036465;28;20495;-72
2023/10/20 02:01:36;;;;;;;77.53;35.05;;;16.20;99.90;;;;;;5021574;28;20162;-71
2023/10/20 02:04:01;;;;;;;55.92;32.35;;;16.20;99.90;;;;;;5019197;28;20108;-71
2023/10/20 02:06:27;;;;;;;54.92;32.70;;;16.20;99.90;;;;;;5035199;28;20474;-71
2023/10/20 02:08:53;;;;;;;69.22;35.97;;;16.20;99.90;;;;;;5020091;28;20018;-71
2023/10/20 02:11:19;;;;;;;61.88;32.80;;;16.30;99.90;;;;;;5036211;28;20036;-71
2023/10/20 02:13:45;;;;;;;66.07;32.80;;;16.30;99.90;;;;;;5033790;28;20030;-71
2023/10/20 02:16:11;;;;;;;53.00;31.55;;;16.30;99.90;;;;;;5038903;28;20044;-72
2023/10/20 02:18:39;;;;;;;73.13;34.97;;;16.30;99.90;;;;;;5034586;28;20033;-71
2023/10/20 02:21:07;;;;;;;58.45;32.88;;;16.30;99.90;;;;;;5017600;28;20029;-72
2023/10/20 02:23:35;;;;;;;69.53;36.53;;;16.20;99.90;;;;;;5036895;28;20470;-73
2023/10/20 02:26:02;;;;;;;55.28;33.95;;;16.30;99.90;;;;;;5038071;28;20041;-71
2023/10/20 02:28:28;;;;;;;60.38;35.50;;;16.30;99.90;;;;;;5037151;28;20060;-71
2023/10/20 02:30:56;;;;;;;53.28;31.73;;;16.30;99.90;;;;;;5035711;28;20063;-71
2023/10/20 02:33:22;;;;;;;83.32;36.28;;;16.20;99.90;;;;;;5021206;28;20474;-71
2023/10/20 02:35:48;;;;;;;54.13;32.15;;;16.20;99.90;;;;;;5039215;28;20028;-71
2023/10/20 02:38:14;;;;;;;63.83;35.75;;;16.20;99.90;;;;;;5041865;28;20386;-71
2023/10/20 02:40:48;;;;;;;70.75;35.22;;;16.20;99.90;;;;;;5039016;28;20036;-71
2023/10/20 02:43:14;;;;;;;63.60;34.80;;;16.30;99.90;;;;;;5037940;28;20017;-72
2023/10/20 02:45:53;;;;;;;72.43;35.42;;;16.20;99.90;;;;;;5039896;28;20504;-70
2023/10/20 02:48:23;;;;;;;65.90;33.88;;;16.20;99.90;;;;;;5041280;28;20060;-71
2023/10/20 02:50:49;;;;;;;58.33;33.00;;;16.20;99.90;;;;;;5036906;28;20056;-70
2023/10/20 02:53:15;;;;;;;69.60;34.53;;;16.30;99.90;;;;;;5020444;28;20318;-71
2023/10/20 02:55:45;;;;;;;88.75;34.95;;;16.20;99.90;;;;;;5038598;28;20037;-71
2023/10/20 02:58:12;;;;;;;58.75;35.42;;;16.20;99.90;;;;;;5017906;28;20163;-70
2023/10/20 03:00:42;;;;;;;77.82;38.63;;;16.20;99.90;;;;;;5039038;28;20485;-70
2023/10/20 03:03:11;;;;;;;59.20;34.20;;;16.20;99.90;;;;;;5023015;28;20373;-71
2023/10/20 03:05:37;;;;;;;64.88;34.72;;;16.20;99.90;;;;;;5037744;28;20385;-71
2023/10/20 03:08:04;;;;;;;62.25;35.60;;;16.20;99.90;;;;;;5043883;28;20569;-70
2023/10/20 03:10:30;;;;;;;76.70;35.03;;;16.20;99.90;;;;;;5039072;28;20548;-72
2023/10/20 03:12:55;;;;;;;75.20;37.42;;;16.20;99.90;;;;;;5044220;28;20025;-70
2023/10/20 03:15:21;;;;;;;54.05;31.55;;;16.20;99.90;;;;;;5042138;28;20064;-71
2023/10/20 03:17:47;;;;;;;62.67;35.42;;;16.30;99.90;;;;;;5024102;28;20021;-72
2023/10/20 03:20:17;;;;;;;76.90;38.97;;;16.30;99.90;;;;;;5037359;28;20041;-72
2023/10/20 03:22:44;;;;;;;79.97;38.20;;;16.40;99.90;;;;;;5039243;28;20045;-71
2023/10/20 03:25:10;;;;;;;64.82;34.70;;;16.30;99.90;;;;;;5042729;28;20049;-71
2023/10/20 03:27:37;;;;;;;74.22;38.17;;;16.30;99.90;;;;;;5039651;28;20029;-71
2023/10/20 03:30:07;;;;;;;85.55;37.85;;;16.30;99.90;;;;;;5038654;28;20024;-71
2023/10/20 03:32:33;;;;;;;61.42;35.38;;;16.30;99.90;;;;;;5039087;28;20026;-72
2023/10/20 03:34:59;;;;;;;67.63;37.38;;;16.30;99.90;;;;;;5019989;28;20017;-72
2023/10/20 03:37:25;;;;;;;55.83;33.13;;;16.30;99.90;;;;;;5022690;28;20025;-71
2023/10/20 03:39:51;;;;;;;56.08;32.45;;;16.40;99.90;;;;;;5043013;28;20394;-71
2023/10/20 03:42:16;;;;;;;61.35;34.22;;;16.40;99.90;;;;;;5040234;28;20105;-70
2023/10/20 03:44:43;;;;;;;70.72;37.75;;;16.40;99.90;;;;;;5038874;28;20108;-72
2023/10/20 03:47:09;;;;;;;65.72;31.85;;;16.30;99.90;;;;;;5042050;28;20024;-71
2023/10/20 03:49:35;;;;;;;69.72;35.13;;;16.40;99.90;;;;;;5040678;28;20037;-71
2023/10/20 03:52:06;;;;;;;69.60;37.05;;;16.40;99.90;;;;;;5041289;28;20009;-71
2023/10/20 03:54:33;;;;;;;69.95;36.25;;;16.30;99.90;;;;;;5041778;28;20033;-72
2023/10/20 03:56:59;;;;;;;61.20;35.83;;;16.40;99.90;;;;;;5041791;28;20033;-73
2023/10/20 03:59:25;;;;;;;58.95;33.40;;;16.40;99.90;;;;;;5042780;28;20041;-72
2023/10/20 04:01:55;;;;;;;69.93;37.08;;;16.40;99.90;;;;;;5042829;28;20037;-72
2023/10/20 04:04:20;;;;;;;61.38;32.00;;;16.40;99.90;;;;;;5037911;28;20697;-71
2023/10/20 04:06:46;;;;;;;59.67;33.05;;;16.40;99.90;;;;;;5042302;28;20056;-72
2023/10/20 04:09:12;;;;;;;67.75;35.45;;;16.40;99.90;;;;;;5040799;28;20024;-71
2023/10/20 04:11:38;;;;;;;70.43;34.30;;;16.40;99.90;;;;;;5041979;28;20028;-71
2023/10/20 04:14:08;;;;;;;73.22;33.92;;;16.40;99.90;;;;;;5035591;28;20026;-72
2023/10/20 04:16:41;;;;;;;66.13;34.40;;;16.40;99.90;;;;;;5038633;28;20040;-71
2023/10/20 04:19:12;;;;;;;69.25;34.35;;;16.40;99.90;;;;;;5040994;28;20090;-71
2023/10/20 04:21:40;;;;;;;68.18;35.65;;;16.40;99.90;;;;;;5043165;28;20382;-72
2023/10/20 04:24:09;;;;;;;60.47;33.63;;;16.30;99.90;;;;;;5038298;28;20025;-73
2023/10/20 04:26:52;;;;;;;58.40;33.33;;;16.40;99.90;;;;;;5044331;28;20037;-71
2023/10/20 04:41:51;;;;;;;57.72;31.38;;;16.40;99.90;;;;;;5048392;28;20051;-71
2023/10/20 04:54:10;;;;;;;49.75;30.77;;;16.40;99.90;;;;;;5045044;28;20583;-70
2023/10/20 04:56:38;;;;;;;67.10;32.92;;;16.50;99.90;;;;;;5053320;28;20037;-70
2023/10/20 04:59:05;;;;;;;61.58;30.92;;;16.40;99.90;;;;;;5053073;28;20029;-71
2023/10/20 05:04:24;;;;;;;54.08;29.02;;;16.40;99.90;;;;;;5052171;28;20036;-71
2023/10/20 05:07:05;;;;;;;;;;;16.40;99.90;;;;;;5053176;28;20029;-71
2023/10/20 05:09:33;;;;;;;51.80;28.80;;;16.40;99.90;;;;;;5053148;28;19904;-70
2023/10/20 05:11:59;;;;;;;52.97;29.92;;;16.40;99.90;;;;;;5034980;28;20020;-71
2023/10/20 05:14:27;;;;;;;54.22;30.48;;;16.40;99.90;;;;;;5053039;28;20060;-71
2023/10/20 05:16:55;;;;;;;53.80;30.40;;;16.50;99.90;;;;;;5034501;28;20032;-71
2023/10/20 05:19:20;;;;;;;55.17;30.20;;;16.40;99.90;;;;;;5052675;28;20095;-71
2023/10/20 05:21:46;;;;;;;74.85;31.77;;;16.40;99.90;;;;;;5053040;28;20017;-71
2023/10/20 05:24:12;;;;;;;49.72;28.38;;;16.50;99.90;;;;;;5052785;28;20090;-71
2023/10/20 05:26:39;;;;;;;52.28;30.45;;;16.50;99.90;;;;;;5051773;28;20112;-71
2023/10/20 05:29:07;;;;;;;53.47;29.85;;;16.50;99.90;;;;;;5034592;28;20582;-71
2023/10/20 05:31:34;;;;;;;57.38;31.35;;;16.50;99.90;;;;;;5051732;28;20384;-70
2023/10/20 05:33:59;;;;;;;42.45;26.05;;;16.50;99.90;;;;;;5051601;28;20017;-70
2023/10/20 05:36:25;;;;;;;54.40;28.42;;;16.50;99.90;;;;;;5052795;28;20031;-70
2023/10/20 05:38:51;;;;;;;54.40;30.40;;;16.60;99.90;;;;;;5052208;28;20470;-72
2023/10/20 05:41:17;;;;;;;54.70;28.17;;;16.60;99.90;;;;;;5033332;28;20025;-71
2023/10/20 05:43:42;;;;;;;59.28;30.42;;;16.60;99.90;;;;;;5034703;28;20112;-70
2023/10/20 05:46:18;;;;;;;55.03;31.10;;;16.60;99.90;;;;;;5051898;28;20477;-72
2023/10/20 05:48:44;;;;;;;53.40;29.90;;;16.70;99.90;;;;;;5052239;28;20024;-71
2023/10/20 05:51:11;;;;;;;46.08;27.80;;;16.60;99.90;;;;;;5052129;28;20029;-70
2023/10/20 05:53:36;;;;;;;55.38;29.88;;;16.60;99.90;;;;;;5050970;28;20024;-71
2023/10/20 05:56:02;;;;;;;51.47;28.70;;;16.60;99.90;;;;;;5051518;28;20033;-70
2023/10/20 05:58:30;;;;;;;48.72;27.20;;;16.70;99.90;;;;;;5052370;28;20351;-70
2023/10/20 06:01:03;;;;;;;47.65;28.48;;;16.70;99.90;;;;;;5050506;28;20221;-71
2023/10/20 06:03:28;;;;;;;53.95;30.08;;;16.70;99.90;;;;;;5051647;28;20021;-69
2023/10/20 06:05:58;;;;;;;46.38;28.50;;;16.70;99.90;;;;;;5052110;28;20489;-69
2023/10/20 06:08:24;;;;;;;45.72;29.73;;;16.70;99.90;;;;;;5050885;28;20017;-72
2023/10/20 06:10:50;;;;;;;53.78;29.63;;;16.70;99.90;;;;;;5039571;28;20029;-73
2023/10/20 06:13:16;;;;;;;48.72;27.98;;;16.70;99.90;;;;;;5051216;28;20051;-69
2023/10/20 06:15:42;;;;;;;44.05;27.92;;;16.60;99.90;;;;;;5051175;28;20029;-69
2023/10/20 06:18:09;;;;;;;53.15;28.00;;;16.70;99.90;;;;;;5051849;28;20061;-72
2023/10/20 06:20:39;;;;;;;48.92;28.50;;;16.60;99.90;;;;;;5052333;28;20033;-70
2023/10/20 06:23:04;;;;;;;43.00;27.27;;;16.60;99.90;;;;;;5051186;28;20021;-74
2023/10/20 06:25:33;;;;;;;44.65;27.08;;;16.60;99.90;;;;;;5050892;28;20078;-70
2023/10/20 06:27:59;;;;;;;45.58;28.38;;;16.60;99.90;;;;;;5052098;28;20067;-70
2023/10/20 06:30:25;;;;;;;40.95;26.10;;;16.60;99.90;;;;;;5052114;28;20053;-69
2023/10/20 06:33:11;;;;;;;46.30;27.95;;;16.60;99.90;;;;;;5052039;28;20433;-69
2023/10/20 06:35:48;;;;;;;58.45;29.63;;;16.60;99.90;;;;;;5051628;28;20409;-68
2023/10/20 06:38:17;;;;;;;43.78;27.10;;;16.60;99.90;;;;;;5051096;28;20112;-70
2023/10/20 06:40:42;;;;;;;47.35;28.02;;;16.60;99.90;;;;;;5051753;28;20478;-70
2023/10/20 06:43:08;;;;;;;43.63;26.67;;;16.70;99.90;;;;;;5054415;28;20025;-70
2023/10/20 06:45:34;;;;;;;40.97;25.77;;;16.70;99.90;;;;;;5037990;28;20032;-74
2023/10/20 06:48:00;;;;;;;39.55;25.42;;;16.70;99.90;;;;;;5054394;28;20082;-69
2023/10/20 06:50:26;;;;;;;43.88;27.65;;;16.70;99.90;;;;;;5055042;28;20385;-70
2023/10/20 06:52:53;;;;;;;38.28;27.15;;;16.70;99.90;;;;;;5049074;28;20543;-70
2023/10/20 06:55:19;;;;;;;44.17;28.70;;;16.70;99.90;;;;;;5035284;28;20010;-70
2023/10/20 06:57:45;;;;;;;41.78;27.60;;;16.70;99.90;;;;;;5050224;28;20099;-71
2023/10/20 07:00:17;;;;;;;49.15;29.20;;;16.70;99.90;;;;;;5054751;28;20075;-72
2023/10/20 07:02:44;;;;;;;57.67;28.60;;;16.60;99.90;;;;;;5054009;28;20036;-74
2023/10/20 07:05:10;;;;;;;52.65;28.95;;;16.70;99.90;;;;;;5034431;28;20108;-68
2023/10/20 07:07:35;;;;;;;44.85;26.95;;;16.60;99.90;;;;;;5035559;28;20053;-70
2023/10/20 07:10:02;;;;;;;56.47;30.13;;;16.70;99.90;;;;;;5034260;28;20064;-71
2023/10/20 07:12:28;;;;;;;57.28;30.88;;;16.70;99.90;;;;;;5037533;28;20021;-70
2023/10/20 07:14:54;;;;;;;47.03;27.75;;;16.70;99.90;;;;;;5055365;28;20497;-69
2023/10/20 07:17:20;;;;;;;48.25;29.58;;;16.70;99.90;;;;;;5055065;28;20024;-69
2023/10/20 07:19:46;;;;;;;46.10;28.60;;;16.70;99.90;;;;;;5055180;28;20041;-69
2023/10/20 07:22:12;;;;;;;45.40;27.88;;;16.70;99.90;;;;;;5055497;28;20017;-71
2023/10/20 07:24:39;;;;;;;46.03;27.55;;;16.80;99.90;;;;;;5039133;28;20382;-69
2023/10/20 07:27:05;;;;;;;41.25;26.92;;;16.70;99.90;;;;;;5035306;28;20061;-70
2023/10/20 07:29:31;;;;;;;51.25;29.83;;;16.80;99.90;;;;;;5036121;28;20066;-69
2023/10/20 07:31:58;;;;;;;48.50;29.17;;;16.80;99.90;;;;;;5054266;28;20033;-74
2023/10/20 07:34:25;;;;;;;56.40;30.80;;;16.80;99.90;;;;;;5045061;28;20029;-70
2023/10/20 07:36:51;;;;;;;55.17;30.02;;;16.80;99.90;;;;;;5044033;28;20031;-71
2023/10/20 07:39:16;;;;;;;57.38;29.08;;;16.90;99.90;;;;;;5038271;28;20045;-69
2023/10/20 07:41:46;;;;;;;43.22;27.83;;;16.90;99.90;;;;;;5036983;28;20025;-71
2023/10/20 07:44:12;;;;;;;41.50;25.38;;;16.90;99.90;;;;;;5036486;28;20045;-70
2023/10/20 07:46:41;;;;;;;39.38;24.73;;;16.80;99.90;;;;;;5051273;28;20029;-70
2023/10/20 07:49:11;;;;;;;40.50;25.35;;;16.70;99.90;;;;;;5054273;28;20653;-68
2023/10/20 07:51:38;;;;;;;31.38;21.63;;;16.80;99.90;;;;;;5054216;28;20033;-71
2023/10/20 07:54:04;;;;;;;30.65;21.15;;;16.70;99.90;;;;;;5035705;28;20098;-71
2023/10/20 07:56:30;;;;;;;40.30;23.02;;;16.70;99.90;;;;;;5054484;28;20064;-71
2023/10/20 07:58:57;;;;;;;35.97;22.38;;;16.70;99.90;;;;;;5053666;28;20025;-70
2023/10/20 08:01:23;;;;;;;29.38;20.38;;;16.60;99.90;;;;;;5054179;28;20104;-74
2023/10/20 08:03:49;;;;;;;32.78;20.17;;;16.60;99.90;;;;;;5052544;28;20021;-72
2023/10/20 08:06:15;;;;;;;30.95;19.92;;;16.50;99.90;;;;;;5049068;28;20478;-72
2023/10/20 08:08:41;;;;;;;31.73;20.70;;;16.50;99.90;;;;;;5039363;28;20021;-73
2023/10/20 08:11:07;;;;;;;31.55;20.38;;;16.60;99.90;;;;;;5050901;28;20043;-71
2023/10/20 08:13:37;;;;;;;29.25;18.20;;;16.60;99.90;;;;;;5053612;28;20561;-71
2023/10/20 08:16:04;;;;;;;29.60;18.88;;;16.50;99.90;;;;;;5053160;28;20060;-71
2023/10/20 08:18:33;;;;;;;24.20;17.35;;;16.60;99.90;;;;;;5053876;28;20100;-70
2023/10/20 08:21:07;;;;;;;27.60;18.15;;;16.50;99.90;;;;;;5049575;28;20029;-70
2023/10/20 08:23:34;;;;;;;27.40;16.80;;;16.40;99.90;;;;;;5048749;28;20067;-73
2023/10/20 08:26:00;;;;;;;25.25;16.83;;;16.40;99.90;;;;;;5053275;28;20036;-71
2023/10/20 08:28:26;;;;;;;25.35;16.90;;;16.40;99.90;;;;;;5053494;28;20029;-69
2023/10/20 08:31:12;;;;;;;23.77;16.17;;;16.40;99.90;;;;;;5052660;28;20025;-69
2023/10/20 08:33:38;;;;;;;28.42;18.13;;;16.40;99.90;;;;;;5033638;28;20037;-69
2023/10/20 08:36:12;;;;;;;24.60;17.77;;;16.40;99.90;;;;;;5037186;28;20358;-71
2023/10/20 08:38:42;;;;;;;27.60;18.80;;;16.40;99.90;;;;;;5053351;28;20024;-71
2023/10/20 08:41:16;;;;;;;28.23;19.95;;;16.40;99.90;;;;;;5051980;28;20033;-70
2023/10/20 08:43:43;;;;;;;23.92;17.52;;;16.50;99.90;;;;;;5052047;28;20013;-69
2023/10/20 08:46:14;;;;;;;18.08;14.30;;;16.40;99.90;;;;;;5053576;28;20474;-70
2023/10/20 08:48:41;;;;;;;12.20;10.45;;;16.40;99.90;;;;;;5052471;28;20013;-70
2023/10/20 08:51:08;;;;;;;16.70;11.32;;;16.40;99.90;;;;;;5051834;28;20140;-70
2023/10/20 08:53:36;;;;;;;18.13;12.75;;;16.40;99.90;;;;;;5040772;28;20026;-71
2023/10/20 08:56:03;;;;;;;17.70;12.75;;;16.40;99.90;;;;;;5047378;28;20025;-70
2023/10/20 08:58:30;;;;;;;17.75;12.75;;;16.40;99.90;;;;;;5044989;28;20036;-72
2023/10/20 09:00:57;;;;;;;18.73;11.57;;;16.40;99.90;;;;;;5042040;28;20037;-70
2023/10/20 09:03:26;;;;;;;17.42;11.15;;;16.50;99.90;;;;;;5045868;28;20032;-70
2023/10/20 09:06:03;;;;;;;15.65;10.68;;;16.40;99.90;;;;;;5046342;28;20048;-73
2023/10/20 09:08:28;;;;;;;15.52;10.93;;;16.50;99.90;;;;;;5038868;28;20490;-70
2023/10/20 09:10:54;;;;;;;19.52;12.75;;;16.50;99.90;;;;;;5043147;28;20041;-70
2023/10/20 09:13:20;;;;;;;18.55;10.15;;;16.50;99.90;;;;;;5048040;28;20025;-70
2023/10/20 09:15:46;;;;;;;11.80;9.65;;;16.60;99.90;;;;;;5036135;28;20032;-71
2023/10/20 09:18:11;;;;;;;16.10;11.20;;;16.60;99.90;;;;;;5041825;28;20486;-70
2023/10/20 09:20:37;;;;;;;11.35;8.80;;;16.60;99.90;;;;;;5040407;28;20421;-70
2023/10/20 09:23:12;;;;;;;11.77;10.60;;;16.60;99.90;;;;;;5041870;28;20378;-70
2023/10/20 09:25:38;;;;;;;11.05;9.93;;;16.70;99.90;;;;;;5043229;28;20041;-71
2023/10/20 09:28:04;;;;;;;13.20;11.80;;;16.70;99.90;;;;;;5039299;28;20037;-72
2023/10/20 09:30:31;;;;;;;12.30;10.85;;;16.70;99.90;;;;;;5040506;28;20025;-70
2023/10/20 09:32:57;;;;;;;13.32;11.90;;;16.60;99.90;;;;;;5039728;28;20055;-74
2023/10/20 09:35:23;;;;;;;14.35;12.18;;;16.50;99.90;;;;;;5039049;28;20751;-74
2023/10/20 09:37:56;;;;;;;11.65;10.70;;;16.60;99.90;;;;;;5046741;28;20049;-74
2023/10/20 09:40:22;;;;;;;11.20;10.02;;;16.50;99.90;;;;;;5037455;28;20045;-72
2023/10/20 09:43:00;;;;;;;11.43;10.43;;;16.50;99.90;;;;;;5041180;28;20021;-73
2023/10/20 09:45:36;;;;;;;8.60;7.82;;;16.50;99.90;;;;;;5038117;28;20032;-75
2023/10/20 09:48:10;;;;;;;7.70;7.10;;;16.50;99.90;;;;;;5025494;28;20048;-75
2023/10/20 09:50:37;;;;;;;8.15;5.82;;;16.50;99.90;;;;;;5025928;28;20037;-75
2023/10/20 09:53:03;;;;;;;6.93;6.32;;;16.40;99.90;;;;;;5042453;28;20067;-74
2023/10/20 09:55:30;;;;;;;7.53;6.85;;;16.50;99.90;;;;;;5040408;28;20060;-76
2023/10/20 09:57:56;;;;;;;8.35;7.43;;;16.60;99.90;;;;;;5041679;28;20025;-75
2023/10/20 10:00:30;;;;;;;8.13;7.43;;;16.60;99.90;;;;;;5048574;28;20474;-74
2023/10/20 10:02:58;;;;;;;8.52;7.82;;;16.80;99.90;;;;;;5036485;28;20532;-75
2023/10/20 10:05:23;;;;;;;9.55;7.72;;;16.70;99.90;;;;;;5041413;28;20017;-74
2023/10/20 10:08:08;;;;;;;9.82;8.82;;;16.60;99.90;;;;;;5042609;28;20029;-74
2023/10/20 10:10:35;;;;;;;9.40;8.50;;;16.70;99.90;;;;;;5041742;28;20025;-72
2023/10/20 10:13:05;;;;;;;11.68;10.38;;;16.70;99.90;;;;;;5045695;28;20073;-76
2023/10/20 10:15:49;;;;;;;11.55;10.45;;;16.70;99.90;;;;;;5045005;28;20028;-76
2023/10/20 10:18:17;;;;;;;15.63;13.15;;;16.70;99.90;;;;;;5028805;28;20028;-74
2023/10/20 10:20:48;;;;;;;14.15;12.82;;;16.70;99.90;;;;;;5030050;28;20045;-75
2023/10/20 10:23:15;;;;;;;13.82;12.40;;;16.70;99.90;;;;;;5033753;28;20362;-72
2023/10/20 10:25:43;;;;;;;14.43;13.00;;;16.80;99.90;;;;;;5044634;28;20048;-74
2023/10/20 10:28:16;;;;;;;14.90;13.40;;;16.70;99.90;;;;;;5052094;28;20055;-74
2023/10/20 10:30:44;;;;;;;15.55;14.10;;;16.80;99.90;;;;;;5048860;28;20076;-68
2023/10/20 10:33:12;;;;;;;17.35;15.55;;;16.70;99.90;;;;;;5046899;28;20056;-68
2023/10/20 10:35:39;;;;;;;15.65;14.15;;;16.80;99.90;;;;;;5046623;28;20104;-72
2023/10/20 10:38:17;;;;;;;16.30;14.75;;;16.80;99.90;;;;;;5050660;28;20021;-72
2023/10/20 10:40:55;;;;;;;14.45;12.95;;;16.80;99.90;;;;;;5042885;28;20037;-70
2023/10/20 10:43:21;;;;;;;17.98;15.32;;;16.80;99.90;;;;;;5047783;28;20470;-69
2023/10/20 10:45:54;;;;;;;18.27;16.33;;;16.90;99.90;;;;;;5026020;28;20029;-70
2023/10/20 10:48:23;;;;;;;;;;;16.90;99.90;;;;;;5054714;28;20123;-71
2023/10/20 10:50:49;;;;;;;15.88;13.27;;;17.00;99.90;;;;;;5033909;28;19909;-72
2023/10/20 10:53:15;;;;;;;16.02;14.43;;;17.00;99.90;;;;;;5046795;28;20028;-70
2023/10/20 10:55:41;;;;;;;16.65;14.85;;;17.00;99.90;;;;;;5048669;28;20529;-70
2023/10/20 10:58:09;;;;;;;18.75;16.48;;;17.10;99.90;;;;;;5033090;28;20029;-69
2023/10/20 11:00:37;;;;;;;20.13;14.38;;;17.10;99.90;;;;;;5035623;28;20037;-69
2023/10/20 11:03:04;;;;;;;17.67;15.88;;;17.10;99.90;;;;;;5036971;28;20096;-69
2023/10/20 11:05:33;;;;;;;18.48;16.58;;;17.10;99.90;;;;;;5037761;28;20013;-69
2023/10/20 11:08:07;;;;;;;17.95;16.05;;;17.00;99.90;;;;;;5054488;28;20454;-69
2023/10/20 11:10:36;;;;;;;20.20;18.17;;;17.00;99.90;;;;;;5040033;28;20025;-70
2023/10/20 11:13:10;;;;;;;23.48;20.23;;;17.00;99.90;;;;;;5057637;28;20048;-70
2023/10/20 11:15:37;;;;;;;22.27;18.20;;;17.00;99.90;;;;;;5057710;28;20025;-69
2023/10/20 11:18:05;;;;;;;18.17;16.30;;;17.10;99.90;;;;;;5057763;28;20021;-72
2023/10/20 11:20:40;;;;;;;21.00;18.52;;;17.10;99.90;;;;;;5057785;28;20066;-70
2023/10/20 11:23:11;;;;;;;22.30;18.65;;;17.10;99.90;;;;;;5039737;28;20021;-69
2023/10/20 11:25:36;;;;;;;24.05;21.25;;;17.10;99.90;;;;;;5039300;28;20063;-71
2023/10/20 11:28:02;;;;;;;24.02;21.45;;;17.20;99.90;;;;;;5056112;28;20402;-73
2023/10/20 11:30:38;;;;;;;21.30;18.67;;;17.20;99.90;;;;;;5053651;28;20402;-69
2023/10/20 11:33:04;;;;;;;20.35;18.15;;;17.10;99.90;;;;;;5055640;28;20071;-70
2023/10/20 11:35:30;;;;;;;21.48;18.98;;;17.20;99.90;;;;;;5066324;28;20397;-73
2023/10/20 11:37:57;;;;;;;24.92;21.92;;;17.20;99.90;;;;;;5051579;28;20028;-70
2023/10/20 11:40:26;;;;;;;25.42;21.33;;;17.20;99.90;;;;;;5053915;28;20037;-71
2023/10/20 11:42:51;;;;;;;22.52;18.63;;;17.20;99.90;;;;;;5054592;28;20118;-69
2023/10/20 11:45:18;;;;;;;25.10;21.27;;;17.30;99.90;;;;;;5054118;28;20510;-70
2023/10/20 11:47:43;;;;;;;27.70;19.70;;;17.30;99.90;;;;;;5039220;28;20104;-70
2023/10/20 11:50:18;;;;;;;22.58;19.70;;;17.30;99.90;;;;;;5042726;28;20112;-70
2023/10/20 11:52:45;;;;;;;27.10;20.67;;;17.30;99.90;;;;;;5040537;28;20029;-71
2023/10/20 11:55:11;;;;;;;25.00;19.80;;;17.20;99.90;;;;;;5043244;28;20446;-71
2023/10/20 11:57:38;;;;;;;21.50;17.00;;;17.30;99.90;;;;;;5045122;28;20099;-70
2023/10/20 12:00:13;;;;;;;20.48;17.27;;;17.30;99.90;;;;;;5044961;28;20037;-71
2023/10/20 12:02:40;;;;;;;20.70;16.38;;;17.40;99.90;;;;;;5045696;28;20029;-74
2023/10/20 12:05:06;;;;;;;17.55;14.98;;;17.30;99.90;;;;;;5041824;28;20032;-71
2023/10/20 12:07:32;;;;;;;16.02;14.35;;;17.30;99.90;;;;;;5043200;28;20067;-71
2023/10/20 12:09:58;;;;;;;20.80;14.77;;;17.30;99.90;;;;;;5009369;28;20654;-70
2023/10/20 12:12:26;;;;;;;39.20;16.90;;;17.30;99.90;;;;;;5039050;28;20017;-71
2023/10/20 12:14:52;;;;;;;12.63;10.98;;;17.20;99.90;;;;;;5035470;28;20037;-70
2023/10/20 12:17:18;;;;;;;12.43;10.15;;;17.20;99.90;;;;;;5042049;28;20009;-71
2023/10/20 12:19:43;;;;;;;11.60;9.32;;;17.20;99.90;;;;;;5035276;28;20032;-72
2023/10/20 12:22:09;;;;;;;12.30;11.00;;;17.20;99.90;;;;;;5038388;28;20020;-70
2023/10/20 12:24:35;;;;;;;10.15;8.60;;;17.20;99.90;;;;;;5039030;28;20045;-70
2023/10/20 12:27:01;;;;;;;8.60;7.03;;;17.20;99.90;;;;;;5041452;28;20106;-77
2023/10/20 12:29:28;;;;;;;6.18;5.57;;;17.20;99.90;;;;;;5038311;28;20141;-71
2023/10/20 12:31:54;;;;;;;8.77;6.53;;;17.10;99.90;;;;;;5038784;28;20541;-72
2023/10/20 12:34:19;;;;;;;6.07;5.53;;;17.10;99.90;;;;;;5039440;28;20150;-70
2023/10/20 12:36:45;;;;;;;6.95;6.32;;;16.90;99.90;;;;;;5040829;28;20414;-74
2023/10/20 12:39:17;;;;;;;7.68;6.57;;;16.90;99.90;;;;;;5023616;28;20033;-76
2023/10/20 12:41:47;;;;;;;6.57;5.85;;;17.00;99.90;;;;;;5038910;28;20052;-72
2023/10/20 12:44:13;;;;;;;8.80;7.30;;;17.00;99.90;;;;;;5038069;28;20028;-74
2023/10/20 12:46:40;;;;;;;8.07;7.38;;;17.00;99.90;;;;;;5039745;28;20111;-72
2023/10/20 12:49:06;;;;;;;9.30;8.30;;;17.00;99.90;;;;;;5038964;28;20031;-72
2023/10/20 12:51:33;;;;;;;20.60;9.05;;;17.00;99.90;;;;;;5020350;28;20025;-72
2023/10/20 12:54:01;;;;;;;8.07;5.95;;;17.00;99.90;;;;;;5040206;28;20066;-72
2023/10/20 12:56:27;;;;;;;3.85;2.65;;;16.80;99.90;;;;;;5043243;28;20028;-74